sensor_id;sensor_type;location;lat;lon;timestamp;P1;durP1;ratioP1;P2;durP2;ratioP2
72674;SDS011;60752;53.962;9.614;2023-03-01T00:03:51;10.30;;;4.45;;
72674;SDS011;60752;53.962;9.614;2023-03-01T00:09:13;10.57;;;4.57;;
72674;SDS011;60752;53.962;9.614;2023-03-01T00:14:35;11.90;;;4.73;;
72674;SDS011;60752;53.962;9.614;2023-03-01T00:19:56;8.73;;;4.43;;
72674;SDS011;60752;53.962;9.614;2023-03-01T00:25:16;9.23;;;4.38;;
72674;SDS011;60752;53.962;9.614;2023-03-01T00:30:38;9.70;;;4.63;;
72674;SDS011;60752;53.962;9.614;2023-03-01T00:35:59;11.07;;;4.32;;
72674;SDS011;60752;53.962;9.614;2023-03-01T00:41:21;11.98;;;5.03;;
72674;SDS011;60752;53.962;9.614;2023-03-01T00:46:44;9.17;;;4.27;;
72674;SDS011;60752;53.962;9.614;2023-03-01T00:52:05;10.23;;;4.38;;
72674;SDS011;60752;53.962;9.614;2023-03-01T00:57:25;10.43;;;4.80;;
72674;SDS011;60752;53.962;9.614;2023-03-01T01:02:47;12.43;;;6.03;;
72674;SDS011;60752;53.962;9.614;2023-03-01T01:08:08;20.93;;;8.23;;
72674;SDS011;60752;53.962;9.614;2023-03-01T01:13:29;20.38;;;7.97;;
72674;SDS011;60752;53.962;9.614;2023-03-01T01:18:51;31.52;;;8.60;;
72674;SDS011;60752;53.962;9.614;2023-03-01T01:24:12;26.27;;;7.53;;
72674;SDS011;60752;53.962;9.614;2023-03-01T01:29:33;22.38;;;7.72;;
72674;SDS011;60752;53.962;9.614;2023-03-01T01:34:55;18.65;;;7.43;;
72674;SDS011;60752;53.962;9.614;2023-03-01T01:40:16;17.77;;;6.60;;
72674;SDS011;60752;53.962;9.614;2023-03-01T01:45:37;15.77;;;6.22;;
72674;SDS011;60752;53.962;9.614;2023-03-01T01:50:59;24.92;;;8.60;;
72674;SDS011;60752;53.962;9.614;2023-03-01T01:56:21;20.97;;;7.67;;
72674;SDS011;60752;53.962;9.614;2023-03-01T02:01:45;18.37;;;7.47;;
72674;SDS011;60752;53.962;9.614;2023-03-01T02:07:09;19.77;;;6.80;;
72674;SDS011;60752;53.962;9.614;2023-03-01T02:12:34;20.27;;;7.30;;
72674;SDS011;60752;53.962;9.614;2023-03-01T02:17:56;14.40;;;6.53;;
72674;SDS011;60752;53.962;9.614;2023-03-01T02:23:18;13.10;;;5.85;;
72674;SDS011;60752;53.962;9.614;2023-03-01T02:28:41;15.52;;;6.95;;
72674;SDS011;60752;53.962;9.614;2023-03-01T02:34:03;15.47;;;6.60;;
72674;SDS011;60752;53.962;9.614;2023-03-01T02:39:25;13.88;;;6.43;;
72674;SDS011;60752;53.962;9.614;2023-03-01T02:44:50;15.75;;;6.30;;
72674;SDS011;60752;53.962;9.614;2023-03-01T02:50:13;17.10;;;5.97;;
72674;SDS011;60752;53.962;9.614;2023-03-01T02:55:43;17.80;;;7.13;;
72674;SDS011;60752;53.962;9.614;2023-03-01T03:01:05;18.20;;;6.78;;
72674;SDS011;60752;53.962;9.614;2023-03-01T03:06:28;20.73;;;7.38;;
72674;SDS011;60752;53.962;9.614;2023-03-01T03:11:49;17.40;;;7.30;;
72674;SDS011;60752;53.962;9.614;2023-03-01T03:17:11;17.92;;;7.15;;
72674;SDS011;60752;53.962;9.614;2023-03-01T03:22:32;16.92;;;7.22;;
72674;SDS011;60752;53.962;9.614;2023-03-01T03:27:53;14.13;;;5.63;;
72674;SDS011;60752;53.962;9.614;2023-03-01T03:33:16;17.60;;;6.25;;
72674;SDS011;60752;53.962;9.614;2023-03-01T03:38:36;13.98;;;6.03;;
72674;SDS011;60752;53.962;9.614;2023-03-01T03:43:58;18.27;;;6.60;;
72674;SDS011;60752;53.962;9.614;2023-03-01T03:49:21;14.03;;;6.13;;
72674;SDS011;60752;53.962;9.614;2023-03-01T03:54:41;13.48;;;5.07;;
72674;SDS011;60752;53.962;9.614;2023-03-01T04:00:02;13.88;;;6.65;;
72674;SDS011;60752;53.962;9.614;2023-03-01T04:05:25;11.63;;;5.40;;
72674;SDS011;60752;53.962;9.614;2023-03-01T04:10:48;13.52;;;6.00;;
72674;SDS011;60752;53.962;9.614;2023-03-01T04:16:09;11.40;;;6.00;;
72674;SDS011;60752;53.962;9.614;2023-03-01T04:21:32;15.13;;;6.70;;
72674;SDS011;60752;53.962;9.614;2023-03-01T04:26:52;13.73;;;6.05;;
72674;SDS011;60752;53.962;9.614;2023-03-01T04:32:13;16.95;;;6.25;;
72674;SDS011;60752;53.962;9.614;2023-03-01T04:37:35;21.67;;;7.47;;
72674;SDS011;60752;53.962;9.614;2023-03-01T04:42:56;16.70;;;6.43;;
72674;SDS011;60752;53.962;9.614;2023-03-01T04:48:17;14.30;;;6.13;;
72674;SDS011;60752;53.962;9.614;2023-03-01T04:53:39;15.13;;;6.47;;
72674;SDS011;60752;53.962;9.614;2023-03-01T04:59:01;16.50;;;6.57;;
72674;SDS011;60752;53.962;9.614;2023-03-01T05:04:23;16.15;;;7.20;;
72674;SDS011;60752;53.962;9.614;2023-03-01T05:09:48;19.55;;;6.03;;
72674;SDS011;60752;53.962;9.614;2023-03-01T05:15:09;13.77;;;5.93;;
72674;SDS011;60752;53.962;9.614;2023-03-01T05:20:30;11.23;;;4.57;;
72674;SDS011;60752;53.962;9.614;2023-03-01T05:25:54;15.43;;;5.78;;
72674;SDS011;60752;53.962;9.614;2023-03-01T05:31:17;14.10;;;5.37;;
72674;SDS011;60752;53.962;9.614;2023-03-01T05:36:38;10.90;;;4.40;;
72674;SDS011;60752;53.962;9.614;2023-03-01T05:42:00;10.63;;;4.07;;
72674;SDS011;60752;53.962;9.614;2023-03-01T05:47:21;9.32;;;3.88;;
72674;SDS011;60752;53.962;9.614;2023-03-01T05:52:42;12.43;;;4.43;;
72674;SDS011;60752;53.962;9.614;2023-03-01T05:58:05;13.32;;;4.95;;
72674;SDS011;60752;53.962;9.614;2023-03-01T06:03:26;10.63;;;3.65;;
72674;SDS011;60752;53.962;9.614;2023-03-01T06:08:47;13.97;;;5.20;;
72674;SDS011;60752;53.962;9.614;2023-03-01T06:14:09;12.02;;;4.45;;
72674;SDS011;60752;53.962;9.614;2023-03-01T06:19:30;13.40;;;4.68;;
72674;SDS011;60752;53.962;9.614;2023-03-01T06:24:51;7.90;;;3.23;;
72674;SDS011;60752;53.962;9.614;2023-03-01T06:30:13;6.77;;;2.70;;
72674;SDS011;60752;53.962;9.614;2023-03-01T06:35:36;8.20;;;3.35;;
72674;SDS011;60752;53.962;9.614;2023-03-01T06:40:57;8.35;;;2.83;;
72674;SDS011;60752;53.962;9.614;2023-03-01T06:46:19;8.57;;;2.87;;
72674;SDS011;60752;53.962;9.614;2023-03-01T06:51:40;7.00;;;3.10;;
72674;SDS011;60752;53.962;9.614;2023-03-01T06:57:00;7.30;;;2.55;;
72674;SDS011;60752;53.962;9.614;2023-03-01T07:02:24;7.67;;;3.10;;
72674;SDS011;60752;53.962;9.614;2023-03-01T07:07:44;7.63;;;3.20;;
72674;SDS011;60752;53.962;9.614;2023-03-01T07:13:05;8.45;;;2.92;;
72674;SDS011;60752;53.962;9.614;2023-03-01T07:18:27;7.07;;;2.60;;
72674;SDS011;60752;53.962;9.614;2023-03-01T07:23:48;7.20;;;2.87;;
72674;SDS011;60752;53.962;9.614;2023-03-01T07:29:09;10.13;;;2.90;;
72674;SDS011;60752;53.962;9.614;2023-03-01T07:34:34;9.18;;;2.92;;
72674;SDS011;60752;53.962;9.614;2023-03-01T07:39:54;9.30;;;2.90;;
72674;SDS011;60752;53.962;9.614;2023-03-01T07:45:15;9.05;;;2.97;;
72674;SDS011;60752;53.962;9.614;2023-03-01T07:50:37;10.90;;;3.10;;
72674;SDS011;60752;53.962;9.614;2023-03-01T07:56:02;14.20;;;3.33;;
72674;SDS011;60752;53.962;9.614;2023-03-01T08:01:23;9.18;;;3.00;;
72674;SDS011;60752;53.962;9.614;2023-03-01T08:06:46;9.40;;;3.10;;
72674;SDS011;60752;53.962;9.614;2023-03-01T08:12:06;13.27;;;3.50;;
72674;SDS011;60752;53.962;9.614;2023-03-01T08:17:27;10.90;;;3.90;;
72674;SDS011;60752;53.962;9.614;2023-03-01T08:22:49;11.90;;;4.05;;
72674;SDS011;60752;53.962;9.614;2023-03-01T08:28:10;11.20;;;3.90;;
72674;SDS011;60752;53.962;9.614;2023-03-01T08:33:31;14.70;;;4.27;;
72674;SDS011;60752;53.962;9.614;2023-03-01T08:38:53;13.73;;;4.15;;
72674;SDS011;60752;53.962;9.614;2023-03-01T08:44:14;14.35;;;4.47;;
72674;SDS011;60752;53.962;9.614;2023-03-01T08:49:35;12.70;;;4.70;;
72674;SDS011;60752;53.962;9.614;2023-03-01T08:54:57;14.15;;;4.65;;
72674;SDS011;60752;53.962;9.614;2023-03-01T09:00:18;14.68;;;5.38;;
72674;SDS011;60752;53.962;9.614;2023-03-01T09:05:39;16.23;;;5.07;;
72674;SDS011;60752;53.962;9.614;2023-03-01T09:11:02;18.33;;;6.00;;
72674;SDS011;60752;53.962;9.614;2023-03-01T09:16:23;19.65;;;7.28;;
72674;SDS011;60752;53.962;9.614;2023-03-01T09:21:44;17.15;;;6.68;;
72674;SDS011;60752;53.962;9.614;2023-03-01T09:27:06;14.90;;;6.43;;
72674;SDS011;60752;53.962;9.614;2023-03-01T09:32:27;18.75;;;6.57;;
72674;SDS011;60752;53.962;9.614;2023-03-01T09:37:50;22.15;;;7.07;;
72674;SDS011;60752;53.962;9.614;2023-03-01T09:43:15;16.47;;;5.83;;
72674;SDS011;60752;53.962;9.614;2023-03-01T09:48:44;24.48;;;7.70;;
72674;SDS011;60752;53.962;9.614;2023-03-01T09:54:10;20.92;;;7.35;;
72674;SDS011;60752;53.962;9.614;2023-03-01T09:59:36;20.83;;;7.93;;
72674;SDS011;60752;53.962;9.614;2023-03-01T10:05:14;12.70;;;5.00;;
72674;SDS011;60752;53.962;9.614;2023-03-01T10:10:46;21.95;;;8.20;;
72674;SDS011;60752;53.962;9.614;2023-03-01T10:16:11;18.02;;;7.15;;
72674;SDS011;60752;53.962;9.614;2023-03-01T10:21:36;16.27;;;5.70;;
72674;SDS011;60752;53.962;9.614;2023-03-01T10:27:04;23.20;;;9.40;;
72674;SDS011;60752;53.962;9.614;2023-03-01T10:32:29;26.08;;;9.75;;
72674;SDS011;60752;53.962;9.614;2023-03-01T10:37:56;33.47;;;10.93;;
72674;SDS011;60752;53.962;9.614;2023-03-01T10:43:18;32.67;;;10.93;;
72674;SDS011;60752;53.962;9.614;2023-03-01T10:48:41;33.13;;;12.07;;
72674;SDS011;60752;53.962;9.614;2023-03-01T10:54:02;34.17;;;12.53;;
72674;SDS011;60752;53.962;9.614;2023-03-01T10:59:36;29.27;;;10.80;;
72674;SDS011;60752;53.962;9.614;2023-03-01T11:05:00;23.98;;;8.48;;
72674;SDS011;60752;53.962;9.614;2023-03-01T11:10:24;29.70;;;10.05;;
72674;SDS011;60752;53.962;9.614;2023-03-01T11:15:57;26.37;;;10.00;;
72674;SDS011;60752;53.962;9.614;2023-03-01T11:21:20;20.98;;;7.88;;
72674;SDS011;60752;53.962;9.614;2023-03-01T11:26:41;14.48;;;5.43;;
72674;SDS011;60752;53.962;9.614;2023-03-01T11:32:06;17.07;;;5.77;;
72674;SDS011;60752;53.962;9.614;2023-03-01T11:37:33;15.27;;;4.72;;
72674;SDS011;60752;53.962;9.614;2023-03-01T11:43:03;12.00;;;4.88;;
72674;SDS011;60752;53.962;9.614;2023-03-01T11:48:34;10.17;;;3.93;;
72674;SDS011;60752;53.962;9.614;2023-03-01T11:54:09;10.10;;;3.70;;
72674;SDS011;60752;53.962;9.614;2023-03-01T12:11:20;7.30;;;3.30;;
72674;SDS011;60752;53.962;9.614;2023-03-01T12:17:01;7.63;;;2.88;;
72674;SDS011;60752;53.962;9.614;2023-03-01T12:22:32;7.03;;;2.78;;
72674;SDS011;60752;53.962;9.614;2023-03-01T12:28:08;5.73;;;3.00;;
72674;SDS011;60752;53.962;9.614;2023-03-01T12:33:43;6.53;;;3.08;;
72674;SDS011;60752;53.962;9.614;2023-03-01T12:39:15;9.20;;;3.28;;
72674;SDS011;60752;53.962;9.614;2023-03-01T12:44:50;6.50;;;3.00;;
72674;SDS011;60752;53.962;9.614;2023-03-01T12:50:21;6.57;;;2.93;;
72674;SDS011;60752;53.962;9.614;2023-03-01T12:55:46;7.97;;;3.13;;
72674;SDS011;60752;53.962;9.614;2023-03-01T13:01:15;7.75;;;3.45;;
72674;SDS011;60752;53.962;9.614;2023-03-01T13:06:43;8.10;;;3.47;;
72674;SDS011;60752;53.962;9.614;2023-03-01T13:18:31;6.72;;;2.70;;
72674;SDS011;60752;53.962;9.614;2023-03-01T13:23:53;8.83;;;3.17;;
72674;SDS011;60752;53.962;9.614;2023-03-01T13:29:25;8.68;;;2.83;;
72674;SDS011;60752;53.962;9.614;2023-03-01T13:34:49;6.57;;;3.30;;
72674;SDS011;60752;53.962;9.614;2023-03-01T13:46:20;7.30;;;2.60;;
72674;SDS011;60752;53.962;9.614;2023-03-01T13:51:46;7.60;;;3.28;;
72674;SDS011;60752;53.962;9.614;2023-03-01T13:57:12;6.22;;;2.70;;
72674;SDS011;60752;53.962;9.614;2023-03-01T14:02:41;5.87;;;2.20;;
72674;SDS011;60752;53.962;9.614;2023-03-01T14:08:04;5.65;;;2.40;;
72674;SDS011;60752;53.962;9.614;2023-03-01T14:13:29;6.95;;;2.50;;
72674;SDS011;60752;53.962;9.614;2023-03-01T14:19:10;6.57;;;2.33;;
72674;SDS011;60752;53.962;9.614;2023-03-01T14:24:44;5.30;;;2.00;;
72674;SDS011;60752;53.962;9.614;2023-03-01T14:30:10;5.38;;;2.70;;
72674;SDS011;60752;53.962;9.614;2023-03-01T14:35:34;6.03;;;2.37;;
72674;SDS011;60752;53.962;9.614;2023-03-01T14:40:58;6.17;;;2.20;;
72674;SDS011;60752;53.962;9.614;2023-03-01T14:46:23;6.85;;;2.92;;
72674;SDS011;60752;53.962;9.614;2023-03-01T14:51:50;5.30;;;2.72;;
72674;SDS011;60752;53.962;9.614;2023-03-01T14:57:16;7.87;;;4.53;;
72674;SDS011;60752;53.962;9.614;2023-03-01T15:02:39;7.10;;;3.15;;
72674;SDS011;60752;53.962;9.614;2023-03-01T15:08:02;6.97;;;2.60;;
72674;SDS011;60752;53.962;9.614;2023-03-01T15:13:28;5.47;;;2.73;;
72674;SDS011;60752;53.962;9.614;2023-03-01T15:18:54;5.72;;;2.40;;
72674;SDS011;60752;53.962;9.614;2023-03-01T15:24:17;4.68;;;2.00;;
72674;SDS011;60752;53.962;9.614;2023-03-01T15:29:43;4.60;;;2.17;;
72674;SDS011;60752;53.962;9.614;2023-03-01T15:41:00;5.30;;;2.00;;
72674;SDS011;60752;53.962;9.614;2023-03-01T15:46:24;5.32;;;2.10;;
72674;SDS011;60752;53.962;9.614;2023-03-01T15:51:46;9.97;;;2.07;;
72674;SDS011;60752;53.962;9.614;2023-03-01T15:57:09;5.50;;;2.10;;
72674;SDS011;60752;53.962;9.614;2023-03-01T16:02:34;5.40;;;2.40;;
72674;SDS011;60752;53.962;9.614;2023-03-01T16:07:54;6.77;;;2.80;;
72674;SDS011;60752;53.962;9.614;2023-03-01T16:13:15;5.43;;;2.65;;
72674;SDS011;60752;53.962;9.614;2023-03-01T16:18:37;8.63;;;3.65;;
72674;SDS011;60752;53.962;9.614;2023-03-01T16:23:58;8.17;;;3.70;;
72674;SDS011;60752;53.962;9.614;2023-03-01T16:29:19;10.07;;;5.00;;
72674;SDS011;60752;53.962;9.614;2023-03-01T16:34:41;10.35;;;4.53;;
72674;SDS011;60752;53.962;9.614;2023-03-01T16:40:02;11.30;;;5.60;;
72674;SDS011;60752;53.962;9.614;2023-03-01T16:45:24;14.57;;;6.33;;
72674;SDS011;60752;53.962;9.614;2023-03-01T16:50:46;15.30;;;6.35;;
72674;SDS011;60752;53.962;9.614;2023-03-01T16:56:16;15.80;;;7.05;;
72674;SDS011;60752;53.962;9.614;2023-03-01T17:01:39;15.10;;;5.40;;
72674;SDS011;60752;53.962;9.614;2023-03-01T17:07:01;12.80;;;5.80;;
72674;SDS011;60752;53.962;9.614;2023-03-01T17:12:22;13.55;;;5.18;;
72674;SDS011;60752;53.962;9.614;2023-03-01T17:17:42;19.40;;;5.30;;
72674;SDS011;60752;53.962;9.614;2023-03-01T17:23:04;18.03;;;5.77;;
72674;SDS011;60752;53.962;9.614;2023-03-01T17:28:26;15.40;;;6.55;;
72674;SDS011;60752;53.962;9.614;2023-03-01T17:33:49;12.38;;;4.70;;
72674;SDS011;60752;53.962;9.614;2023-03-01T17:39:11;8.57;;;4.63;;
72674;SDS011;60752;53.962;9.614;2023-03-01T17:44:33;10.23;;;5.07;;
72674;SDS011;60752;53.962;9.614;2023-03-01T17:49:54;11.13;;;5.18;;
72674;SDS011;60752;53.962;9.614;2023-03-01T17:55:16;11.80;;;5.77;;
72674;SDS011;60752;53.962;9.614;2023-03-01T18:00:37;26.70;;;10.13;;
72674;SDS011;60752;53.962;9.614;2023-03-01T18:05:58;12.60;;;6.45;;
72674;SDS011;60752;53.962;9.614;2023-03-01T18:11:20;14.77;;;5.97;;
72674;SDS011;60752;53.962;9.614;2023-03-01T18:16:42;15.13;;;6.80;;
72674;SDS011;60752;53.962;9.614;2023-03-01T18:22:02;13.73;;;6.15;;
72674;SDS011;60752;53.962;9.614;2023-03-01T18:27:24;14.73;;;6.75;;
72674;SDS011;60752;53.962;9.614;2023-03-01T18:32:46;15.97;;;6.90;;
72674;SDS011;60752;53.962;9.614;2023-03-01T18:38:06;14.18;;;6.45;;
72674;SDS011;60752;53.962;9.614;2023-03-01T18:43:28;17.48;;;7.47;;
72674;SDS011;60752;53.962;9.614;2023-03-01T18:48:52;12.30;;;6.27;;
72674;SDS011;60752;53.962;9.614;2023-03-01T18:54:13;14.50;;;6.43;;
72674;SDS011;60752;53.962;9.614;2023-03-01T18:59:35;13.65;;;6.03;;
72674;SDS011;60752;53.962;9.614;2023-03-01T19:04:56;19.90;;;7.73;;
72674;SDS011;60752;53.962;9.614;2023-03-01T19:10:17;19.13;;;8.20;;
72674;SDS011;60752;53.962;9.614;2023-03-01T19:15:41;18.45;;;7.45;;
72674;SDS011;60752;53.962;9.614;2023-03-01T19:21:02;14.23;;;6.22;;
72674;SDS011;60752;53.962;9.614;2023-03-01T19:26:24;19.50;;;7.03;;
72674;SDS011;60752;53.962;9.614;2023-03-01T19:31:47;14.65;;;6.70;;
72674;SDS011;60752;53.962;9.614;2023-03-01T19:37:08;19.30;;;8.63;;
72674;SDS011;60752;53.962;9.614;2023-03-01T19:42:29;18.83;;;7.40;;
72674;SDS011;60752;53.962;9.614;2023-03-01T19:47:51;18.90;;;7.75;;
72674;SDS011;60752;53.962;9.614;2023-03-01T19:53:11;20.45;;;9.25;;
72674;SDS011;60752;53.962;9.614;2023-03-01T19:58:32;20.53;;;8.63;;
72674;SDS011;60752;53.962;9.614;2023-03-01T20:03:54;18.43;;;8.50;;
72674;SDS011;60752;53.962;9.614;2023-03-01T20:09:15;21.52;;;8.23;;
72674;SDS011;60752;53.962;9.614;2023-03-01T20:14:37;20.95;;;8.35;;
72674;SDS011;60752;53.962;9.614;2023-03-01T20:19:59;20.70;;;7.67;;
72674;SDS011;60752;53.962;9.614;2023-03-01T20:25:20;19.52;;;7.40;;
72674;SDS011;60752;53.962;9.614;2023-03-01T20:30:41;22.60;;;7.72;;
72674;SDS011;60752;53.962;9.614;2023-03-01T20:36:04;19.13;;;7.90;;
72674;SDS011;60752;53.962;9.614;2023-03-01T20:41:26;19.60;;;6.57;;
72674;SDS011;60752;53.962;9.614;2023-03-01T20:46:47;21.77;;;7.78;;
72674;SDS011;60752;53.962;9.614;2023-03-01T20:52:09;20.63;;;8.97;;
72674;SDS011;60752;53.962;9.614;2023-03-01T20:57:30;24.40;;;8.53;;
72674;SDS011;60752;53.962;9.614;2023-03-01T21:02:52;20.85;;;8.15;;
72674;SDS011;60752;53.962;9.614;2023-03-01T21:08:17;22.30;;;8.23;;
72674;SDS011;60752;53.962;9.614;2023-03-01T21:13:38;19.50;;;6.83;;
72674;SDS011;60752;53.962;9.614;2023-03-01T21:18:58;20.05;;;8.02;;
72674;SDS011;60752;53.962;9.614;2023-03-01T21:24:21;20.83;;;8.75;;
72674;SDS011;60752;53.962;9.614;2023-03-01T21:29:42;19.77;;;7.60;;
72674;SDS011;60752;53.962;9.614;2023-03-01T21:35:04;21.75;;;7.45;;
72674;SDS011;60752;53.962;9.614;2023-03-01T21:40:26;17.30;;;7.20;;
72674;SDS011;60752;53.962;9.614;2023-03-01T21:45:47;21.13;;;7.23;;
72674;SDS011;60752;53.962;9.614;2023-03-01T21:51:09;20.37;;;8.07;;
72674;SDS011;60752;53.962;9.614;2023-03-01T21:56:33;21.80;;;7.70;;
72674;SDS011;60752;53.962;9.614;2023-03-01T22:01:54;17.85;;;7.18;;
72674;SDS011;60752;53.962;9.614;2023-03-01T22:07:14;22.23;;;8.27;;
72674;SDS011;60752;53.962;9.614;2023-03-01T22:12:37;19.55;;;7.45;;
72674;SDS011;60752;53.962;9.614;2023-03-01T22:17:57;35.00;;;8.20;;
72674;SDS011;60752;53.962;9.614;2023-03-01T22:23:18;26.07;;;8.07;;
72674;SDS011;60752;53.962;9.614;2023-03-01T22:28:40;20.67;;;8.10;;
72674;SDS011;60752;53.962;9.614;2023-03-01T22:34:01;19.98;;;7.22;;
72674;SDS011;60752;53.962;9.614;2023-03-01T22:39:22;27.57;;;8.60;;
72674;SDS011;60752;53.962;9.614;2023-03-01T22:44:44;24.33;;;7.93;;
72674;SDS011;60752;53.962;9.614;2023-03-01T22:50:06;23.02;;;7.30;;
72674;SDS011;60752;53.962;9.614;2023-03-01T22:55:27;16.40;;;7.05;;
72674;SDS011;60752;53.962;9.614;2023-03-01T23:00:50;20.90;;;8.10;;
72674;SDS011;60752;53.962;9.614;2023-03-01T23:06:10;17.17;;;7.25;;
72674;SDS011;60752;53.962;9.614;2023-03-01T23:11:32;29.30;;;7.63;;
72674;SDS011;60752;53.962;9.614;2023-03-01T23:16:54;20.17;;;7.63;;
72674;SDS011;60752;53.962;9.614;2023-03-01T23:22:15;22.05;;;7.13;;
72674;SDS011;60752;53.962;9.614;2023-03-01T23:27:35;20.67;;;7.38;;
72674;SDS011;60752;53.962;9.614;2023-03-01T23:32:58;18.13;;;7.20;;
72674;SDS011;60752;53.962;9.614;2023-03-01T23:38:18;19.00;;;6.97;;
72674;SDS011;60752;53.962;9.614;2023-03-01T23:43:42;20.65;;;7.90;;
72674;SDS011;60752;53.962;9.614;2023-03-01T23:49:05;18.98;;;7.38;;
72674;SDS011;60752;53.962;9.614;2023-03-01T23:54:25;12.63;;;6.20;;
72674;SDS011;60752;53.962;9.614;2023-03-01T23:59:46;20.08;;;7.32;;
